PWSweather.com
Personal Weather Stations
Station Observations
WISCHPK61
Green Bay Schmitt Park, Green Bay, WI 54311

Green Bay Schmitt ParkGreen Bay, WI 54311

Lat: 44.514277, Lon: -87.935067

Elevation: 735

Station Type: Acu Rite Pro Weather Center model 02032C

http://greenbayweathercam.com

High Low Average
Temperature 70.2°F21.2°C 30.7°F-0.7°C 48.8°F9.3°C
Dew Point 66.3°F19.1°C 30.0°F-1.1°C 47.6°F8.7°C
Winds 1.2 mph 1.9 kmh Calm Calm Calm SSWCalm SSW
Wind Gusts 2.3 mph3.7 kmh -- --
Humidity 99% 52% 96%
Pressure 29.23 in989.8 mb 29.08 in984.8 mb -
Precipitation 0.00 in0.0 mm - -
Hour Temp Dew Point Humidity Winds Wind Gusts Pressure Precip Precip Rate Daily Precip Total
12:00 AM 35.6°F2.0°C 35.3°F1.8°C 99% Calm Calm -- 29.23 in989.8 mb - 0.00 in0.0 mm 0.00 in0.0 mm
01:00 AM 34.0°F1.1°C 30.0°F-1.1°C 85% Calm Calm -- 29.23 in989.8 mb - 0.00 in0.0 mm 0.00 in0.0 mm
02:00 AM 32.9°F0.5°C 32.7°F0.4°C 99% Calm Calm -- 29.23 in989.8 mb - 0.00 in0.0 mm 0.00 in0.0 mm
03:00 AM 31.8°F-0.1°C 31.6°F-0.2°C 99% Calm Calm -- 29.23 in989.8 mb - 0.00 in0.0 mm 0.00 in0.0 mm
04:00 AM 31.3°F-0.4°C 31.1°F-0.5°C 99% Calm Calm -- 29.23 in989.8 mb - 0.00 in0.0 mm 0.00 in0.0 mm
05:00 AM 31.1°F-0.5°C 30.9°F-0.6°C 99% Calm Calm -- 29.22 in989.5 mb - 0.00 in0.0 mm 0.00 in0.0 mm
06:00 AM 30.7°F-0.7°C 30.5°F-0.8°C 99% Calm Calm -- 29.20 in988.8 mb - 0.00 in0.0 mm 0.00 in0.0 mm
07:00 AM 30.9°F-0.6°C 30.7°F-0.7°C 99% Calm Calm -- 29.21 in989.2 mb - 0.00 in0.0 mm 0.00 in0.0 mm
08:00 AM 35.2°F1.8°C 34.9°F1.6°C 99% Calm Calm -- 29.22 in989.5 mb - 0.00 in0.0 mm 0.00 in0.0 mm
09:00 AM 45.1°F7.3°C 44.8°F7.1°C 99% Calm Calm -- 29.22 in989.5 mb - 0.00 in0.0 mm 0.00 in0.0 mm
10:00 AM 49.8°F9.9°C 49.5°F9.7°C 99% Calm Calm -- 29.21 in989.2 mb - 0.00 in0.0 mm 0.00 in0.0 mm
11:00 AM 54.3°F12.4°C 54.0°F12.2°C 99% 1.2 mph WNW1.9 kmh WNW 2.3 mph3.7 kmh 29.21 in989.2 mb - 0.00 in0.0 mm 0.00 in0.0 mm
12:00 PM 61.0°F16.1°C 60.7°F15.9°C 99% Calm Calm -- 29.20 in988.8 mb - 0.00 in0.0 mm 0.00 in0.0 mm
01:00 PM 66.3°F19.1°C 66.0°F18.9°C 99% Calm Calm -- 29.18 in988.1 mb - 0.00 in0.0 mm 0.00 in0.0 mm
02:00 PM 70.2°F21.2°C 51.7°F10.9°C 52% Calm Calm -- 29.16 in987.5 mb - 0.00 in0.0 mm 0.00 in0.0 mm
03:00 PM 66.6°F19.2°C 66.3°F19.1°C 99% Calm Calm -- 29.15 in987.1 mb - 0.00 in0.0 mm 0.00 in0.0 mm
04:00 PM 61.3°F16.3°C 61.0°F16.1°C 99% Calm Calm -- 29.12 in986.1 mb - 0.00 in0.0 mm 0.00 in0.0 mm
05:00 PM 61.3°F16.3°C 61.0°F16.1°C 99% Calm Calm -- 29.10 in985.4 mb - 0.00 in0.0 mm 0.00 in0.0 mm
06:00 PM 59.2°F15.1°C 58.9°F14.9°C 99% Calm Calm -- 29.09 in985.1 mb - 0.00 in0.0 mm 0.00 in0.0 mm
07:00 PM 58.3°F14.6°C 58.0°F14.4°C 99% Calm Calm -- 29.08 in984.8 mb - 0.00 in0.0 mm 0.00 in0.0 mm
08:00 PM 53.9°F12.2°C 53.6°F12.0°C 99% Calm Calm -- 29.09 in985.1 mb - 0.00 in0.0 mm 0.00 in0.0 mm
09:00 PM 52.5°F11.4°C 52.2°F11.2°C 99% Calm Calm -- 29.10 in985.4 mb - 0.00 in0.0 mm 0.00 in0.0 mm
10:00 PM 52.5°F11.4°C 52.2°F11.2°C 99% Calm Calm -- 29.10 in985.4 mb - 0.00 in0.0 mm 0.00 in0.0 mm
11:00 PM 50.6°F10.3°C 50.3°F10.2°C 99% Calm Calm -- 29.10 in985.4 mb - 0.00 in0.0 mm 0.00 in0.0 mm